CheckWX is a tool to help pilots better visualize weather data.  It is not intended as a substitute for an official pre-flight weather briefing.

09:13:07 UTC

KARG METAR
Walnut Ridge Regional Airport
Walnut Ridge, Arkansas, USA
Current

17 mins ago

KARG 240856Z AUTO 14009KT 6SM -RA BR OVC005 08/07 A2985 RMK AO2 SLP110 P0019 60045 T00780072 58035
Observed
Feb-24 @ 08:56 UTC
Wind
  • 140° at 9 KTS
Visibility
6 SM
Flight Rules
IFR
Conditions
Light Rain, Mist
Cloud Levels
  • Overcast at 500' AGL
Temperature
C / 46°F
Dewpoint
C / 45°F
Humidity
93%
Altimeter
29.85" Hg
Pressure
1010.82 hPa
Current Rain
0.19"
Previous

1 hour ago

KARG 240756Z AUTO 14010KT 5SM RA BR OVC005 07/07 A2989 RMK AO2 CIG 003V008 SLP124 P0019 T00720072
Observed
Feb-24 @ 07:56 UTC
Wind
  • 140° at 10 KTS
Visibility
5 SM
Flight Rules
IFR
Conditions
Rain, Mist
Cloud Levels
  • Overcast at 500' AGL
Temperature
C / 45°F
Dewpoint
C / 45°F
Humidity
100%
Altimeter
29.89" Hg
Pressure
1012.22 hPa
Current Rain
0.19"
Previous

2 hours ago

KARG 240737Z AUTO 14010KT 5SM -RA BR OVC005 07/07 A2991 RMK AO2 CIG 003V009 P0012
Observed
Feb-24 @ 07:37 UTC
Wind
  • 140° at 10 KTS
Visibility
5 SM
Flight Rules
IFR
Conditions
Light Rain, Mist
Cloud Levels
  • Overcast at 500' AGL
Temperature
C / 45°F
Dewpoint
C / 45°F
Humidity
100%
Altimeter
29.91" Hg
Pressure
1012.92 hPa
Current Rain
0.12"